Terminal Aerodrome Forecast
Issued by NWS

Home | Current Version | Previous Version | Text Only | Print | Product List | Glossary On
Versions: 1 2 3 4 5 6 7 8 9 10 11 12 13
000
FTUS45 KSLC 311720
TAFBCE
TAF
KBCE 311720Z 3118/0118 14012G20KT P6SM SCT120 BKN200
     FM010200 16010KT P6SM SCT120 BKN200
     FM011500 15018G28KT P6SM VCSH SCT040 BKN080=

USA.gov is the U.S. government's official web portal to all federal, state and local government web resources and services.